Airport Name : Naha

Other Name : Naha

ICAO : ROAH

IATA : OKA

FAA :

Latitude : 26.195814

Longitude : 127.645869

Country : Japan

Local Date and Time : 9/26/2018 9:34:00 PM

 

TAF (Terminal Aerodrome Forecast)

TAF ROAH 261107Z 2612/2718 06014KT 9999 FEW015 SCT025 TEMPO 2700/2706 05020G30KT 4000 SHRA FEW010 BKN020 FEW025CB TEMPO 2706/2718 06025G37KT

 

METAR (METeorological Aerodrome Report)

ROAH 261200Z 05012KT 010V080 9999 VCSH SCT020 SCT030 BKN/// 29/24 Q1003 RMK 3CU020 4CU030 A2962

ROAH 261130Z 05011KT 020V090 9999 FEW020 SCT030 BKN/// 29/24 Q1002

ROAH 261100Z 05012KT 010V070 9999 VCSH FEW020 SCT030 BKN/// 29/24 Q1002

ROAH 261030Z 06011KT 020V090 9999 SCT020 BKN/// 29/24 Q1002

ROAH 261000Z 05012KT 020V080 9999 VCSH FEW020 SCT030 BKN/// 29/24 Q1001 RMK 1CU020 3CU030 A2958

ROAH 260930Z 06012KT 9999 FEW020 BKN/// 29/23 Q1001 RMK 2CU020 A2958

ROAH 260900Z 06014KT 9999 FEW020 BKN/// 29/24 Q1002